createdAt,value
2023-05-12T00:01:27.262Z,11.65
2023-05-12T00:03:54.087Z,11.58
2023-05-12T00:06:21.380Z,11.60
2023-05-12T00:08:47.852Z,11.55
2023-05-12T00:11:14.315Z,11.53
2023-05-12T00:13:40.826Z,11.47
2023-05-12T00:16:07.584Z,11.44
2023-05-12T00:18:34.113Z,11.42
2023-05-12T00:21:01.170Z,11.40
2023-05-12T00:23:27.636Z,11.40
2023-05-12T00:25:54.152Z,11.31
2023-05-12T00:28:20.871Z,11.28
2023-05-12T00:30:47.309Z,11.25
2023-05-12T00:33:13.966Z,11.30
2023-05-12T00:35:40.482Z,11.29
2023-05-12T00:38:06.964Z,11.27
2023-05-12T00:40:33.550Z,11.23
2023-05-12T00:43:00.104Z,11.21
2023-05-12T00:45:26.859Z,11.24
2023-05-12T00:47:53.692Z,11.19
2023-05-12T00:50:21.207Z,11.17
2023-05-12T00:52:50.662Z,11.18
2023-05-12T00:55:17.357Z,11.15
2023-05-12T00:57:44.227Z,11.08
2023-05-12T01:00:11.718Z,11.01
2023-05-12T01:02:39.474Z,11.01
2023-05-12T01:05:06.567Z,11.04
2023-05-12T01:07:33.375Z,11.02
2023-05-12T01:09:59.858Z,10.94
2023-05-12T01:12:26.873Z,10.94
2023-05-12T01:14:55.603Z,10.86
2023-05-12T01:17:28.707Z,10.98
2023-05-12T01:20:00.759Z,10.88
2023-05-12T01:22:31.216Z,10.89
2023-05-12T01:24:59.815Z,10.83
2023-05-12T01:27:27.453Z,10.83
2023-05-12T01:29:56.832Z,10.82
2023-05-12T01:32:23.785Z,10.74
2023-05-12T01:34:53.156Z,10.72
2023-05-12T01:37:19.828Z,10.68
2023-05-12T01:39:46.339Z,10.66
2023-05-12T01:42:13.004Z,10.61
2023-05-12T01:44:39.742Z,10.58
2023-05-12T01:47:09.816Z,10.60
2023-05-12T01:49:36.411Z,10.56
2023-05-12T01:52:03.182Z,10.52
2023-05-12T01:54:29.729Z,10.51
2023-05-12T01:56:56.208Z,10.52
2023-05-12T01:59:22.915Z,10.48
2023-05-12T02:01:49.440Z,10.43
2023-05-12T02:04:16.132Z,10.43
2023-05-12T02:06:43.111Z,10.41
2023-05-12T02:09:09.629Z,10.43
2023-05-12T02:11:36.670Z,10.42
2023-05-12T02:14:03.285Z,10.41
2023-05-12T02:16:29.807Z,10.41
2023-05-12T02:18:56.355Z,10.33
2023-05-12T02:21:23.246Z,10.27
2023-05-12T02:23:49.847Z,10.29
2023-05-12T02:26:16.361Z,10.22
2023-05-12T02:28:42.844Z,10.20
2023-05-12T02:31:09.478Z,10.20
2023-05-12T02:33:36.682Z,10.25
2023-05-12T02:36:03.364Z,10.18
2023-05-12T02:38:29.859Z,10.22
2023-05-12T02:40:56.391Z,10.17
2023-05-12T02:43:22.857Z,10.15
2023-05-12T02:45:49.348Z,10.14
2023-05-12T02:48:15.977Z,10.13
2023-05-12T02:50:43.150Z,10.13
2023-05-12T02:53:09.673Z,10.17
2023-05-12T02:55:36.112Z,10.13
2023-05-12T02:58:02.839Z,10.20
2023-05-12T03:00:29.353Z,10.22
2023-05-12T03:02:56.073Z,10.17
2023-05-12T03:05:22.721Z,10.14
2023-05-12T03:07:52.066Z,10.17
2023-05-12T03:10:19.276Z,10.15
2023-05-12T03:12:46.207Z,10.15
2023-05-12T03:15:12.927Z,10.15
2023-05-12T03:17:39.638Z,10.22
2023-05-12T03:20:06.946Z,10.19
2023-05-12T03:22:33.536Z,10.20
2023-05-12T03:25:00.195Z,10.21
2023-05-12T03:27:26.838Z,10.30
2023-05-12T03:29:53.300Z,10.29
2023-05-12T03:32:19.924Z,10.34
2023-05-12T03:34:46.423Z,10.40
2023-05-12T03:37:12.889Z,10.39
2023-05-12T03:39:39.429Z,10.29
2023-05-12T03:42:06.325Z,10.39
2023-05-12T03:44:32.835Z,10.48
2023-05-12T03:46:59.395Z,10.51
2023-05-12T03:49:26.004Z,10.51
2023-05-12T03:51:52.652Z,10.55
2023-05-12T03:54:19.592Z,10.61
2023-05-12T03:56:46.215Z,10.58
2023-05-12T03:59:12.912Z,10.61
2023-05-12T04:01:39.515Z,10.63
2023-05-12T04:04:06.160Z,10.73
2023-05-12T04:06:32.779Z,10.77
2023-05-12T04:08:59.230Z,10.82
2023-05-12T04:11:25.783Z,10.84
2023-05-12T04:13:52.634Z,10.81
2023-05-12T04:16:19.131Z,10.91
2023-05-12T04:18:45.721Z,10.95
2023-05-12T04:21:12.227Z,10.95
2023-05-12T04:23:38.869Z,11.03
2023-05-12T04:26:05.810Z,11.10
2023-05-12T04:28:32.306Z,11.09
2023-05-12T04:31:04.796Z,11.15
2023-05-12T04:33:31.449Z,11.16
2023-05-12T04:35:58.378Z,11.18
2023-05-12T04:38:25.134Z,11.26
2023-05-12T04:40:51.669Z,11.36
2023-05-12T04:45:47.535Z,11.49
2023-05-12T04:48:14.029Z,11.63
2023-05-12T04:50:40.745Z,11.64
2023-05-12T04:53:07.305Z,11.64
2023-05-12T04:55:34.006Z,11.70
2023-05-12T04:58:00.481Z,11.76
2023-05-12T05:00:26.918Z,11.80
2023-05-12T05:02:53.494Z,11.92
2023-05-12T05:05:20.179Z,11.98
2023-05-12T05:07:46.778Z,12.20
2023-05-12T05:10:13.314Z,12.27
2023-05-12T05:12:39.793Z,12.32
2023-05-12T05:15:07.519Z,12.35
2023-05-12T05:17:34.097Z,12.51
2023-05-12T05:20:00.708Z,12.68
2023-05-12T05:22:27.375Z,12.68
2023-05-12T05:24:53.915Z,12.73
2023-05-12T05:27:20.661Z,12.91
2023-05-12T05:29:47.304Z,12.89
2023-05-12T05:32:13.874Z,13.10
2023-05-12T05:34:40.422Z,13.29
2023-05-12T05:37:06.961Z,13.57
2023-05-12T05:39:33.499Z,13.95
2023-05-12T05:42:00.000Z,14.18
2023-05-12T05:44:26.516Z,14.56
2023-05-12T05:46:53.095Z,15.27
2023-05-12T05:49:19.698Z,16.10
2023-05-12T05:51:46.265Z,16.26
2023-05-12T05:54:12.811Z,17.06
2023-05-12T05:56:39.334Z,17.69
2023-05-12T05:59:06.358Z,17.42
2023-05-12T06:01:33.155Z,17.87
2023-05-12T06:03:59.997Z,17.76
2023-05-12T06:06:26.667Z,18.83
2023-05-12T06:08:56.006Z,19.56
2023-05-12T06:11:22.953Z,18.75
2023-05-12T06:13:49.944Z,19.21
2023-05-12T06:16:16.508Z,20.31
2023-05-12T06:18:43.113Z,20.80
2023-05-12T06:21:09.730Z,19.88
2023-05-12T06:23:36.459Z,20.69
2023-05-12T06:26:03.198Z,20.18
2023-05-12T06:28:30.138Z,21.07
2023-05-12T06:30:56.768Z,21.28
2023-05-12T06:33:23.759Z,22.63
2023-05-12T06:35:50.286Z,21.00
2023-05-12T06:38:16.865Z,21.04
2023-05-12T06:40:43.337Z,20.90
2023-05-12T06:43:09.850Z,22.12
2023-05-12T06:45:36.652Z,21.41
2023-05-12T06:48:05.822Z,21.77
2023-05-12T06:50:32.495Z,21.07
2023-05-12T06:52:58.988Z,21.03
2023-05-12T06:55:25.500Z,20.82
2023-05-12T06:57:55.636Z,22.43
2023-05-12T07:00:26.125Z,22.92
2023-05-12T07:02:53.018Z,23.39
2023-05-12T07:05:20.130Z,23.31
2023-05-12T07:07:46.809Z,22.79
2023-05-12T07:10:13.311Z,22.78
2023-05-12T07:12:39.946Z,23.50
2023-05-12T07:15:07.205Z,22.78
2023-05-12T07:17:33.769Z,21.68
2023-05-12T07:20:00.374Z,22.39
2023-05-12T07:22:27.193Z,22.75
2023-05-12T07:24:53.735Z,22.62
2023-05-12T07:27:20.240Z,22.43
2023-05-12T07:29:46.966Z,21.87
2023-05-12T07:32:13.562Z,21.68
2023-05-12T07:34:40.160Z,21.11
2023-05-12T07:37:06.802Z,20.82
2023-05-12T07:39:33.440Z,20.98
2023-05-12T07:42:00.059Z,21.03
2023-05-12T07:44:27.586Z,20.94
2023-05-12T07:46:54.503Z,20.14
2023-05-12T07:49:23.205Z,19.74
2023-05-12T07:51:49.751Z,19.22
2023-05-12T07:54:16.254Z,19.80
2023-05-12T07:56:42.744Z,19.93
2023-05-12T07:59:09.268Z,20.59
2023-05-12T08:01:35.903Z,20.16
2023-05-12T08:04:02.473Z,20.07
2023-05-12T08:06:29.063Z,20.22
2023-05-12T08:08:58.090Z,20.56
2023-05-12T08:11:27.509Z,19.31
2023-05-12T08:13:54.047Z,19.43
2023-05-12T08:16:20.675Z,19.41
2023-05-12T08:18:47.282Z,19.21
2023-05-12T08:21:14.103Z,19.00
2023-05-12T08:23:41.899Z,19.34
2023-05-12T08:26:08.383Z,19.62
2023-05-12T08:28:35.484Z,19.80
2023-05-12T08:31:04.796Z,19.98
2023-05-12T08:33:31.817Z,19.69
2023-05-12T08:35:58.305Z,19.69
2023-05-12T08:38:24.927Z,20.16
2023-05-12T08:41:20.009Z,20.03
2023-05-12T08:43:50.259Z,19.99
2023-05-12T08:46:17.114Z,19.87
2023-05-12T08:48:47.967Z,19.72
2023-05-12T08:51:14.610Z,19.43
2023-05-12T08:53:42.192Z,19.47
2023-05-12T08:58:42.673Z,19.35
2023-05-12T09:01:11.577Z,19.29
2023-05-12T09:03:38.989Z,19.12
2023-05-12T09:06:06.309Z,19.19
2023-05-12T09:08:34.817Z,19.15
2023-05-12T09:11:02.288Z,18.83
2023-05-12T09:13:40.309Z,18.94
2023-05-12T09:16:12.003Z,18.83
2023-05-12T09:18:48.955Z,18.85
2023-05-12T09:21:15.456Z,18.61
2023-05-12T09:23:52.334Z,18.66
2023-05-12T09:26:18.970Z,18.63
2023-05-12T09:28:45.425Z,18.79
2023-05-12T09:31:19.186Z,19.15
2023-05-12T09:33:45.969Z,19.09
2023-05-12T09:36:20.170Z,18.51
2023-05-12T09:38:47.209Z,18.73
2023-05-12T09:41:13.874Z,18.75
2023-05-12T09:43:46.903Z,19.08
2023-05-12T09:46:14.591Z,19.08
2023-05-12T09:48:41.156Z,18.92
2023-05-12T09:51:10.797Z,18.89
2023-05-12T09:53:42.860Z,18.64
2023-05-12T09:56:09.634Z,18.82
2023-05-12T09:58:37.077Z,18.65
2023-05-12T10:01:18.345Z,18.63
2023-05-12T10:03:54.930Z,18.68
2023-05-12T10:06:30.915Z,19.09
2023-05-12T10:09:06.439Z,19.11
2023-05-12T10:11:35.470Z,19.21
2023-05-12T10:14:02.213Z,19.17
2023-05-12T10:16:28.867Z,19.22
2023-05-12T10:18:56.503Z,19.18
2023-05-12T10:21:24.997Z,19.23
2023-05-12T10:23:52.358Z,19.27
2023-05-12T10:26:19.067Z,19.42
2023-05-12T10:28:46.018Z,19.05
2023-05-12T10:31:12.817Z,18.93
2023-05-12T10:33:39.413Z,19.09
2023-05-12T10:36:16.907Z,19.38
2023-05-12T10:38:43.416Z,18.99
2023-05-12T10:41:09.920Z,18.97
2023-05-12T10:43:45.199Z,19.28
2023-05-12T10:46:18.067Z,19.32
2023-05-12T10:48:59.915Z,19.52
2023-05-12T10:51:31.134Z,19.24
2023-05-12T10:54:06.071Z,19.11
2023-05-12T10:56:38.757Z,19.56
2023-05-12T10:59:19.563Z,19.60
2023-05-12T11:02:25.061Z,19.31
2023-05-12T11:04:56.271Z,19.43
2023-05-12T11:07:27.801Z,19.55
2023-05-12T11:09:59.368Z,19.44
2023-05-12T11:12:35.446Z,19.68
2023-05-12T11:15:03.293Z,19.52
2023-05-12T11:17:29.968Z,19.75
2023-05-12T11:19:56.958Z,19.96
2023-05-12T11:22:23.991Z,19.89
2023-05-12T11:24:52.698Z,20.15
2023-05-12T11:27:23.087Z,20.08
2023-05-12T11:30:00.617Z,19.59
2023-05-12T11:32:27.654Z,19.69
2023-05-12T11:34:54.409Z,19.87
2023-05-12T11:37:21.471Z,20.04
2023-05-12T11:39:48.400Z,20.21
2023-05-12T11:42:16.983Z,20.30
2023-05-12T11:44:48.940Z,20.40
2023-05-12T11:47:16.745Z,20.36
2023-05-12T11:49:48.300Z,20.04
2023-05-12T11:52:15.180Z,19.97
2023-05-12T11:55:08.133Z,20.15
2023-05-12T11:57:38.259Z,20.23
2023-05-12T12:00:09.852Z,20.54
2023-05-12T12:02:43.309Z,20.49
2023-05-12T12:05:21.131Z,20.71
2023-05-12T12:07:48.138Z,20.41
2023-05-12T12:10:16.587Z,20.61
2023-05-12T12:12:43.237Z,20.49
2023-05-12T12:15:10.905Z,19.76
2023-05-12T12:17:37.805Z,19.51
2023-05-12T12:20:04.650Z,19.64
2023-05-12T12:22:34.273Z,19.71
2023-05-12T12:25:01.899Z,19.98
2023-05-12T12:27:28.933Z,20.05
2023-05-12T12:29:55.546Z,20.28
2023-05-12T12:32:22.195Z,20.34
2023-05-12T12:34:49.491Z,20.12
2023-05-12T12:37:16.305Z,20.30
2023-05-12T12:39:42.905Z,20.36
2023-05-12T12:42:09.529Z,20.23
2023-05-12T12:44:36.218Z,20.16
2023-05-12T12:47:02.889Z,20.11
2023-05-12T12:49:29.558Z,20.18
2023-05-12T12:51:56.188Z,20.16
2023-05-12T12:54:23.084Z,20.51
2023-05-12T12:56:50.416Z,20.68
2023-05-12T12:59:16.963Z,20.72
2023-05-12T13:01:43.531Z,20.31
2023-05-12T13:06:36.968Z,19.98
2023-05-12T13:09:03.993Z,20.11
2023-05-12T13:11:30.679Z,20.28
2023-05-12T13:13:57.195Z,20.66
2023-05-12T13:16:23.731Z,20.57
2023-05-12T13:18:50.650Z,20.63
2023-05-12T13:21:18.754Z,20.73
2023-05-12T13:23:45.386Z,20.84
2023-05-12T13:26:11.963Z,21.24
2023-05-12T13:28:38.458Z,21.31
2023-05-12T13:31:06.090Z,21.05
2023-05-12T13:33:32.710Z,20.72
2023-05-12T13:35:59.358Z,20.84
2023-05-12T13:38:26.340Z,20.87
2023-05-12T13:40:55.756Z,21.10
2023-05-12T13:43:22.483Z,21.02
2023-05-12T13:45:48.946Z,20.96
2023-05-12T13:48:15.482Z,21.21
2023-05-12T13:50:42.091Z,20.76
2023-05-12T13:53:11.398Z,20.63
2023-05-12T13:55:40.814Z,20.73
2023-05-12T13:58:07.555Z,20.91
2023-05-12T14:00:34.063Z,20.72
2023-05-12T14:03:02.738Z,20.74
2023-05-12T14:05:29.334Z,20.53
2023-05-12T14:07:55.835Z,20.29
2023-05-12T14:10:22.345Z,20.23
2023-05-12T14:12:48.900Z,20.46
2023-05-12T14:15:28.926Z,20.56
2023-05-12T14:18:01.983Z,20.40
2023-05-12T14:20:28.420Z,20.38
2023-05-12T14:22:55.624Z,20.54
2023-05-12T14:25:23.856Z,20.85
2023-05-12T14:27:50.668Z,20.79
2023-05-12T14:30:17.946Z,20.64
2023-05-12T14:32:44.561Z,20.59
2023-05-12T14:35:11.281Z,20.78
2023-05-12T14:37:38.445Z,20.99
2023-05-12T14:40:05.451Z,20.78
2023-05-12T14:42:32.383Z,20.41
2023-05-12T14:44:59.351Z,20.18
2023-05-12T14:47:26.681Z,19.91
2023-05-12T14:49:53.297Z,19.66
2023-05-12T14:52:19.825Z,19.53
2023-05-12T14:54:46.394Z,19.72
2023-05-12T14:57:13.711Z,19.95
2023-05-12T14:59:40.225Z,19.88
2023-05-12T15:02:07.473Z,20.04
2023-05-12T15:04:34.015Z,20.13
2023-05-12T15:07:00.678Z,20.19
2023-05-12T15:09:27.157Z,20.09
2023-05-12T15:11:53.772Z,20.28
2023-05-12T15:14:20.247Z,20.40
2023-05-12T15:16:46.811Z,20.43
2023-05-12T15:19:14.169Z,20.22
2023-05-12T15:21:41.039Z,19.88
2023-05-12T15:24:07.586Z,20.08
2023-05-12T15:26:35.206Z,19.83
2023-05-12T15:29:03.300Z,20.03
2023-05-12T15:31:30.372Z,20.11
2023-05-12T15:33:57.586Z,20.24
2023-05-12T15:36:24.193Z,20.26
2023-05-12T15:38:50.842Z,20.42
2023-05-12T15:41:17.490Z,20.54
2023-05-12T15:43:44.265Z,20.58
2023-05-12T15:46:11.699Z,20.58
2023-05-12T15:48:39.464Z,20.76
2023-05-12T15:51:06.886Z,20.18
2023-05-12T15:53:33.898Z,20.14
2023-05-12T15:56:01.759Z,20.05
2023-05-12T15:58:28.621Z,19.99
2023-05-12T16:00:56.509Z,20.07
2023-05-12T16:03:23.873Z,20.13
2023-05-12T16:05:50.799Z,20.06
2023-05-12T16:08:17.592Z,20.37
2023-05-12T16:10:44.163Z,20.51
2023-05-12T16:13:10.655Z,20.27
2023-05-12T16:15:37.232Z,20.27
2023-05-12T16:18:05.872Z,20.30
2023-05-12T16:20:33.684Z,20.34
2023-05-12T16:23:00.371Z,20.22
2023-05-12T16:25:26.980Z,20.10
2023-05-12T16:27:53.569Z,19.99
2023-05-12T16:30:20.601Z,19.60
2023-05-12T16:32:47.481Z,19.32
2023-05-12T16:35:14.341Z,19.27
2023-05-12T16:37:41.457Z,19.10
2023-05-12T16:40:09.582Z,19.02
2023-05-12T16:42:36.593Z,19.00
2023-05-12T16:45:03.230Z,18.88
2023-05-12T16:47:29.892Z,18.83
2023-05-12T16:49:58.133Z,18.80
2023-05-12T16:52:25.461Z,18.81
2023-05-12T16:54:52.152Z,18.91
2023-05-12T16:57:18.836Z,19.00
2023-05-12T16:59:45.534Z,18.93
2023-05-12T17:02:12.094Z,18.93
2023-05-12T17:04:38.618Z,19.00
2023-05-12T17:07:05.397Z,18.98
2023-05-12T17:09:31.854Z,19.02
2023-05-12T17:11:58.325Z,19.11
2023-05-12T17:14:25.176Z,19.12
2023-05-12T17:19:18.252Z,18.95
2023-05-12T17:21:44.760Z,19.00
2023-05-12T17:24:11.237Z,19.07
2023-05-12T17:26:37.701Z,18.98
2023-05-12T17:29:04.392Z,18.84
2023-05-12T17:31:31.094Z,18.65
2023-05-12T17:33:57.691Z,18.57
2023-05-12T17:36:24.293Z,18.47
2023-05-12T17:38:51.833Z,18.41
2023-05-12T17:41:19.321Z,18.42
2023-05-12T17:43:45.959Z,18.28
2023-05-12T17:46:12.452Z,18.22
2023-05-12T17:48:39.133Z,18.14
2023-05-12T17:51:05.958Z,18.07
2023-05-12T17:53:32.953Z,18.11
2023-05-12T17:55:59.932Z,18.15
2023-05-12T17:58:26.641Z,18.15
2023-05-12T18:00:53.626Z,18.18
2023-05-12T18:03:23.773Z,18.13
2023-05-12T18:05:51.565Z,18.03
2023-05-12T18:08:18.226Z,17.82
2023-05-12T18:10:45.265Z,17.63
2023-05-12T18:13:11.847Z,17.63
2023-05-12T18:15:39.376Z,17.63
2023-05-12T18:18:06.279Z,17.47
2023-05-12T18:20:32.955Z,17.40
2023-05-12T18:22:59.515Z,17.24
2023-05-12T18:25:26.130Z,17.27
2023-05-12T18:27:52.825Z,17.19
2023-05-12T18:30:19.339Z,17.09
2023-05-12T18:32:45.864Z,16.94
2023-05-12T18:35:12.443Z,16.87
2023-05-12T18:37:38.924Z,16.87
2023-05-12T18:40:06.868Z,16.86
2023-05-12T18:42:34.391Z,16.89
2023-05-12T18:45:00.862Z,16.78
2023-05-12T18:47:27.424Z,16.78
2023-05-12T18:49:54.081Z,16.73
2023-05-12T18:52:23.658Z,16.73
2023-05-12T18:54:50.146Z,16.66
2023-05-12T18:57:17.421Z,16.58
2023-05-12T18:59:43.998Z,16.54
2023-05-12T19:02:10.997Z,16.50
2023-05-12T19:04:37.708Z,16.33
2023-05-12T19:07:06.461Z,16.31
2023-05-12T19:09:32.945Z,16.27
2023-05-12T19:11:59.564Z,16.20
2023-05-12T19:14:26.026Z,16.19
2023-05-12T19:16:52.770Z,16.13
2023-05-12T19:19:19.263Z,16.09
2023-05-12T19:21:45.875Z,16.00
2023-05-12T19:24:12.517Z,15.98
2023-05-12T19:26:39.079Z,15.96
2023-05-12T19:29:05.870Z,16.02
2023-05-12T19:31:34.170Z,15.87
2023-05-12T19:34:00.789Z,15.80
2023-05-12T19:36:29.011Z,15.77
2023-05-12T19:38:59.429Z,15.80
2023-05-12T19:41:29.883Z,15.69
2023-05-12T19:43:56.421Z,15.76
2023-05-12T19:46:22.999Z,15.68
2023-05-12T19:48:50.944Z,15.69
2023-05-12T19:51:17.476Z,15.68
2023-05-12T19:53:44.068Z,15.67
2023-05-12T19:56:10.671Z,15.50
2023-05-12T19:58:37.115Z,15.36
2023-05-12T20:01:03.686Z,15.17
2023-05-12T20:03:30.338Z,15.23
2023-05-12T20:05:58.515Z,15.07
2023-05-12T20:08:24.977Z,15.08
2023-05-12T20:10:51.478Z,14.90
2023-05-12T20:13:17.962Z,14.80
2023-05-12T20:15:44.594Z,14.82
2023-05-12T20:18:12.647Z,14.84
2023-05-12T20:20:39.268Z,14.78
2023-05-12T20:23:05.725Z,14.65
2023-05-12T20:25:33.140Z,14.56
2023-05-12T20:27:59.685Z,14.61
2023-05-12T20:30:26.672Z,14.49
2023-05-12T20:32:53.223Z,14.40
2023-05-12T20:35:20.462Z,14.15
2023-05-12T20:37:47.377Z,14.18
2023-05-12T20:40:14.107Z,13.89
2023-05-12T20:42:40.642Z,13.84
2023-05-12T20:45:07.758Z,13.82
2023-05-12T20:47:35.065Z,13.72
2023-05-12T20:50:05.507Z,13.72
2023-05-12T20:52:33.687Z,13.70
2023-05-12T20:55:00.278Z,13.76
2023-05-12T20:57:27.088Z,13.87
2023-05-12T20:59:56.670Z,13.71
2023-05-12T21:02:24.557Z,13.58
2023-05-12T21:04:51.308Z,13.57
2023-05-12T21:07:17.811Z,13.42
2023-05-12T21:09:44.377Z,13.41
2023-05-12T21:12:10.883Z,13.20
2023-05-12T21:14:41.270Z,12.97
2023-05-12T21:17:08.701Z,12.82
2023-05-12T21:19:36.459Z,12.77
2023-05-12T21:22:03.901Z,12.72
2023-05-12T21:24:30.454Z,12.66
2023-05-12T21:26:56.959Z,12.63
2023-05-12T21:29:23.459Z,12.52
2023-05-12T21:31:50.260Z,12.49
2023-05-12T21:34:17.030Z,12.50
2023-05-12T21:36:43.554Z,12.42
2023-05-12T21:39:10.066Z,12.36
2023-05-12T21:41:38.448Z,12.35
2023-05-12T21:44:10.475Z,12.48
2023-05-12T21:46:37.945Z,12.43
2023-05-12T21:49:04.527Z,12.33
2023-05-12T21:51:33.015Z,12.28
2023-05-12T21:54:00.025Z,12.17
2023-05-12T21:56:26.910Z,12.23
2023-05-12T21:58:53.448Z,12.13
2023-05-12T22:01:20.072Z,11.94
2023-05-12T22:03:46.678Z,11.89
2023-05-12T22:06:13.308Z,11.67
2023-05-12T22:08:42.284Z,11.62
2023-05-12T22:11:08.954Z,11.62
2023-05-12T22:13:35.454Z,11.75
2023-05-12T22:16:03.857Z,11.72
2023-05-12T22:18:30.455Z,11.74
2023-05-12T22:20:57.020Z,11.72
2023-05-12T22:23:23.555Z,11.68
2023-05-12T22:25:50.136Z,11.67
2023-05-12T22:28:16.644Z,11.73
2023-05-12T22:30:43.264Z,11.81
2023-05-12T22:33:09.789Z,11.74
2023-05-12T22:35:36.261Z,11.65
2023-05-12T22:38:02.797Z,11.61
2023-05-12T22:40:30.641Z,11.49
2023-05-12T22:42:57.175Z,11.40
2023-05-12T22:45:25.198Z,11.24
2023-05-12T22:47:51.723Z,11.25
2023-05-12T22:50:18.790Z,11.24
2023-05-12T22:52:45.701Z,11.09
2023-05-12T22:55:12.230Z,11.02
2023-05-12T22:57:40.693Z,10.99
2023-05-12T23:00:08.088Z,11.00
2023-05-12T23:02:34.603Z,10.99
2023-05-12T23:05:02.499Z,10.97
2023-05-12T23:07:29.199Z,10.91
2023-05-12T23:09:55.820Z,10.98
2023-05-12T23:12:22.275Z,11.02
2023-05-12T23:14:48.787Z,11.06
2023-05-12T23:17:15.209Z,11.11
2023-05-12T23:19:41.697Z,11.06
2023-05-12T23:22:08.155Z,11.06
2023-05-12T23:24:35.994Z,11.07
2023-05-12T23:27:02.510Z,11.09
2023-05-12T23:29:29.206Z,11.18
2023-05-12T23:31:56.455Z,11.21
2023-05-12T23:34:23.007Z,11.38
2023-05-12T23:36:49.460Z,11.47
2023-05-12T23:39:16.193Z,11.40
2023-05-12T23:41:42.800Z,11.57
2023-05-12T23:44:09.258Z,11.58
2023-05-12T23:46:35.733Z,11.55
2023-05-12T23:49:02.273Z,11.27
2023-05-12T23:51:29.066Z,11.19
2023-05-12T23:53:55.619Z,11.19
2023-05-12T23:56:22.851Z,11.01
2023-05-12T23:58:49.429Z,11.00
